Terminal Aerodrome Forecast
Issued by NWS Salt Lake City, UT

Home | Current Version | Previous Version | Text Only | Print | Product List | Glossary On
Versions: 1 2 3 4 5 6 7 8 9 10 11 12 13 14 15 16 17 18 19 20 21 22 23 24 25
000
FTUS45 KSLC 221740
TAFCDC
TAF
KCDC 221740Z 2218/2318 18005KT P6SM SCT120
     FM222000 36015G25KT P6SM VCSH SCT030 BKN050
     FM230100 36010KT P6SM SCT050 BKN070
     FM231200 03008KT P6SM SCT070=

USA.gov is the U.S. government's official web portal to all federal, state and local government web resources and services.